createdAt,value
2018-07-23T10:23:33.985Z,29.30
2018-07-23T10:28:25.049Z,29.10
2018-07-23T10:33:19.175Z,29.50
2018-07-23T10:38:13.702Z,29.70
2018-07-23T10:43:09.102Z,29.80
2018-07-23T10:48:02.954Z,28.80
2018-07-23T10:52:57.796Z,28.60
2018-07-23T10:57:52.786Z,29.00
2018-07-23T11:02:48.105Z,30.00
2018-07-23T11:07:42.737Z,31.00
2018-07-23T11:12:40.178Z,31.70
2018-07-23T11:17:37.511Z,32.00
2018-07-23T11:22:31.679Z,32.70
2018-07-23T11:27:44.374Z,33.30
2018-07-23T11:33:24.014Z,33.50
2018-07-23T11:38:15.926Z,33.20
2018-07-23T11:43:16.349Z,34.20
2018-07-23T11:53:34.202Z,32.60
2018-07-23T11:58:28.703Z,32.60
2018-07-23T12:03:31.757Z,33.30
2018-07-23T12:08:30.810Z,33.90
2018-07-23T12:13:32.492Z,34.30
2018-07-23T12:18:48.666Z,34.60
2018-07-23T12:23:48.152Z,34.50
2018-07-23T12:28:47.245Z,33.90
2018-07-23T12:34:00.901Z,34.10
2018-07-23T12:38:59.354Z,34.50
2018-07-23T12:44:33.068Z,34.90
2018-07-23T12:52:10.636Z,34.80
2018-07-23T12:57:07.762Z,35.40
2018-07-23T13:02:10.562Z,35.10
2018-07-23T13:07:13.156Z,35.20
2018-07-23T13:12:13.721Z,35.50
2018-07-23T13:17:30.189Z,35.40
2018-07-23T13:22:32.142Z,35.50
2018-07-23T13:27:39.313Z,35.00
2018-07-23T13:35:37.632Z,35.00
2018-07-23T13:40:41.985Z,34.80
2018-07-23T13:45:43.845Z,34.30
2018-07-23T13:50:46.997Z,34.80
2018-07-23T13:55:41.632Z,35.00
2018-07-23T14:00:45.241Z,34.30
2018-07-23T14:05:55.609Z,34.00
2018-07-23T14:10:53.410Z,34.60
2018-07-23T14:15:57.090Z,33.70
2018-07-23T14:21:03.930Z,33.70
2018-07-23T14:26:10.374Z,34.20
2018-07-23T14:31:18.405Z,34.70
2018-07-23T14:42:17.129Z,34.70
2018-07-23T14:47:29.595Z,34.30
2018-07-23T14:58:10.038Z,34.70
2018-07-23T15:03:08.838Z,35.50
2018-07-23T15:23:02.372Z,35.60
2018-07-23T15:33:27.640Z,33.70
2018-07-23T15:38:33.014Z,33.20
2018-07-23T15:43:58.233Z,33.10
2018-07-23T16:13:45.285Z,32.00
2018-07-23T16:18:48.752Z,31.60
2018-07-23T16:24:01.085Z,31.40
2018-07-23T16:35:56.174Z,31.10
2018-07-23T16:41:13.165Z,30.80
2018-07-23T16:46:12.288Z,30.50
2018-07-23T16:56:45.253Z,30.50
2018-07-23T17:01:42.120Z,30.50
2018-07-23T17:06:40.526Z,30.60
2018-07-23T17:14:38.602Z,30.50
2018-07-23T17:19:34.837Z,30.50
2018-07-23T17:24:58.797Z,30.60
2018-07-23T17:30:58.023Z,30.70
2018-07-23T17:35:53.977Z,30.70
2018-07-23T17:43:14.061Z,30.60
2018-07-23T17:48:07.057Z,30.40
2018-07-23T17:56:33.222Z,30.30
2018-07-23T18:01:20.358Z,30.20
2018-07-23T18:06:15.290Z,30.10
2018-07-23T18:11:09.786Z,30.10
2018-07-23T18:16:05.221Z,30.10
2018-07-23T18:20:59.845Z,30.20
2018-07-23T18:25:54.755Z,30.00
2018-07-23T18:30:49.460Z,29.90
2018-07-23T18:35:42.339Z,29.70
2018-07-23T18:40:37.744Z,29.70
2018-07-23T18:45:30.749Z,29.60
2018-07-23T18:50:23.960Z,29.60
2018-07-23T18:55:17.488Z,29.50
2018-07-23T19:00:11.144Z,29.30
2018-07-23T19:05:04.170Z,29.20
2018-07-23T19:09:59.075Z,29.00
2018-07-23T19:14:53.475Z,28.70
2018-07-23T19:19:46.600Z,28.60
2018-07-23T19:24:41.567Z,28.50
2018-07-23T19:29:32.628Z,28.40
2018-07-23T19:34:28.739Z,28.20
2018-07-23T19:39:23.287Z,28.00
2018-07-23T19:44:16.767Z,27.90
2018-07-23T19:49:08.549Z,27.70
2018-07-23T19:54:02.165Z,27.50
2018-07-23T19:58:54.896Z,27.40
2018-07-23T20:03:50.073Z,27.10
2018-07-23T20:08:45.988Z,26.90
2018-07-23T20:13:40.861Z,26.80
2018-07-23T20:18:35.159Z,26.60
2018-07-23T20:23:30.004Z,26.40
2018-07-23T20:28:24.005Z,26.20
2018-07-23T20:33:18.837Z,26.10
2018-07-23T20:38:14.065Z,26.00
2018-07-23T20:43:08.713Z,25.90
2018-07-23T20:48:01.466Z,25.80
2018-07-23T20:52:56.685Z,25.70
2018-07-23T20:57:52.037Z,25.60
2018-07-23T21:02:46.447Z,25.40
2018-07-23T21:07:41.395Z,25.40
2018-07-23T21:12:36.900Z,25.30
2018-07-23T21:17:34.978Z,25.10
2018-07-23T21:22:30.964Z,24.90
2018-07-23T21:27:25.509Z,24.90
2018-07-23T21:32:21.555Z,24.80
2018-07-23T21:37:16.125Z,24.80
2018-07-23T21:42:11.124Z,24.70
2018-07-23T21:47:06.924Z,24.50
2018-07-23T21:52:03.228Z,24.40
2018-07-23T21:57:00.126Z,24.40
2018-07-23T22:01:54.113Z,24.30
2018-07-23T22:06:52.245Z,24.20
2018-07-23T22:11:46.007Z,24.10
2018-07-23T22:16:41.639Z,23.90
2018-07-23T22:21:50.080Z,23.70
2018-07-23T22:26:46.157Z,23.50
2018-07-23T22:31:47.233Z,23.50
2018-07-23T22:36:44.367Z,23.50
2018-07-23T22:41:41.312Z,23.50
2018-07-23T22:46:44.298Z,23.50
2018-07-23T22:51:41.552Z,23.50
2018-07-23T22:56:41.294Z,23.40
2018-07-23T23:01:39.930Z,23.40
2018-07-23T23:06:37.817Z,23.20
2018-07-23T23:11:38.870Z,23.00
2018-07-23T23:16:40.568Z,22.90
2018-07-23T23:21:41.132Z,22.90
2018-07-23T23:26:39.824Z,22.80
2018-07-23T23:31:42.664Z,22.70
2018-07-23T23:36:41.265Z,22.60
2018-07-23T23:41:46.664Z,22.60
2018-07-23T23:46:44.105Z,22.50
2018-07-23T23:51:45.852Z,22.50
2018-07-23T23:56:44.282Z,22.40
